createdAt,value
2023-03-05T00:00:17.661Z,2.95
2023-03-05T00:03:04.292Z,2.67
2023-03-05T00:05:50.777Z,2.78
2023-03-05T00:08:37.742Z,2.70
2023-03-05T00:11:28.025Z,2.85
2023-03-05T00:17:00.672Z,2.55
2023-03-05T00:19:47.218Z,2.70
2023-03-05T00:22:35.316Z,2.67
2023-03-05T00:25:21.930Z,3.85
2023-03-05T00:28:10.216Z,2.45
2023-03-05T00:31:00.773Z,2.88
2023-03-05T00:36:33.599Z,3.00
2023-03-05T00:39:21.118Z,1.75
2023-03-05T00:42:08.338Z,3.65
2023-03-05T00:44:55.914Z,2.72
2023-03-05T00:47:42.388Z,2.20
2023-03-05T00:50:29.425Z,2.33
2023-03-05T00:53:16.176Z,2.22
2023-03-05T00:56:02.610Z,1.83
2023-03-05T00:58:49.210Z,2.28
2023-03-05T01:01:36.952Z,2.20
2023-03-05T01:04:23.270Z,2.70
2023-03-05T01:07:09.722Z,2.17
2023-03-05T01:09:56.197Z,2.38
2023-03-05T01:12:42.626Z,3.13
2023-03-05T01:15:29.248Z,2.90
2023-03-05T01:18:16.911Z,2.70
2023-03-05T01:21:04.250Z,4.57
2023-03-05T01:23:50.852Z,3.05
2023-03-05T01:26:37.801Z,3.65
2023-03-05T01:29:24.629Z,3.97
2023-03-05T01:32:11.354Z,2.72
2023-03-05T01:34:58.934Z,2.65
2023-03-05T01:37:45.192Z,2.60
2023-03-05T01:40:32.181Z,3.00
2023-03-05T01:43:25.126Z,2.55
2023-03-05T01:46:34.806Z,1.98
2023-03-05T01:49:25.687Z,2.45
2023-03-05T01:52:17.929Z,2.22
2023-03-05T01:55:07.367Z,2.17
2023-03-05T01:57:56.280Z,1.77
2023-03-05T02:00:47.067Z,3.15
2023-03-05T02:03:35.576Z,2.72
2023-03-05T02:06:22.250Z,2.10
2023-03-05T02:09:10.825Z,3.03
2023-03-05T02:11:57.591Z,2.20
2023-03-05T02:14:47.660Z,3.00
2023-03-05T02:17:34.346Z,2.35
2023-03-05T02:20:23.868Z,2.42
2023-03-05T02:23:11.811Z,2.00
2023-03-05T02:25:58.244Z,3.15
2023-03-05T02:28:47.800Z,2.85
2023-03-05T02:31:34.682Z,2.63
2023-03-05T02:34:21.171Z,1.80
2023-03-05T02:37:09.334Z,2.10
2023-03-05T02:39:58.621Z,1.90
2023-03-05T02:42:46.703Z,2.10
2023-03-05T02:45:34.635Z,2.15
2023-03-05T02:48:20.952Z,1.80
2023-03-05T02:51:08.481Z,2.05
2023-03-05T02:53:55.132Z,1.40
2023-03-05T02:56:45.619Z,1.60
2023-03-05T02:59:31.683Z,1.60
2023-03-05T03:02:18.506Z,1.15
2023-03-05T03:05:05.317Z,1.10
2023-03-05T03:07:52.078Z,1.90
2023-03-05T03:10:38.548Z,1.65
2023-03-05T03:13:25.971Z,1.73
2023-03-05T03:16:15.271Z,2.25
2023-03-05T03:19:01.712Z,1.83
2023-03-05T03:21:49.836Z,2.08
2023-03-05T03:24:37.436Z,1.77
2023-03-05T03:27:24.662Z,1.58
2023-03-05T03:30:14.496Z,1.63
2023-03-05T03:33:00.979Z,1.58
2023-03-05T03:35:47.653Z,1.88
2023-03-05T03:38:34.045Z,2.05
2023-03-05T03:41:20.554Z,2.28
2023-03-05T03:44:08.722Z,2.05
2023-03-05T03:46:56.505Z,2.42
2023-03-05T03:49:43.126Z,2.72
2023-03-05T03:52:29.734Z,2.35
2023-03-05T03:55:15.915Z,2.80
2023-03-05T03:58:03.339Z,2.70
2023-03-05T04:00:49.875Z,3.38
2023-03-05T04:03:38.140Z,2.10
2023-03-05T04:06:24.736Z,2.20
2023-03-05T04:09:11.347Z,2.42
2023-03-05T04:11:57.703Z,2.88
2023-03-05T04:14:44.053Z,2.35
2023-03-05T04:17:30.452Z,2.20
2023-03-05T04:20:18.618Z,2.28
2023-03-05T04:23:05.021Z,1.95
2023-03-05T04:25:51.592Z,2.30
2023-03-05T04:28:37.896Z,2.17
2023-03-05T04:31:24.880Z,2.70
2023-03-05T04:34:11.263Z,2.10
2023-03-05T04:36:58.881Z,2.03
2023-03-05T04:39:45.638Z,2.30
2023-03-05T04:42:32.100Z,2.35
2023-03-05T04:45:18.582Z,3.42
2023-03-05T04:48:05.065Z,2.38
2023-03-05T04:50:51.177Z,3.03
2023-03-05T04:53:38.859Z,2.75
2023-03-05T04:56:25.287Z,3.33
2023-03-05T04:59:12.487Z,2.92
2023-03-05T05:01:59.110Z,2.78
2023-03-05T05:04:45.937Z,2.65
2023-03-05T05:07:32.765Z,2.63
2023-03-05T05:10:20.652Z,2.92
2023-03-05T05:13:06.916Z,2.95
2023-03-05T05:15:53.378Z,2.70
2023-03-05T05:18:40.164Z,2.67
2023-03-05T05:21:26.685Z,3.00
2023-03-05T05:24:13.138Z,2.50
2023-03-05T05:27:00.868Z,2.65
2023-03-05T05:29:50.148Z,4.55
2023-03-05T05:32:36.651Z,2.30
2023-03-05T05:35:23.449Z,2.78
2023-03-05T05:38:10.053Z,2.50
2023-03-05T05:40:56.438Z,2.35
2023-03-05T05:43:44.636Z,2.65
2023-03-05T05:46:31.161Z,6.95
2023-03-05T05:49:17.498Z,5.22
2023-03-05T05:52:03.901Z,1.65
2023-03-05T05:54:50.740Z,1.98
2023-03-05T05:57:36.900Z,2.00
2023-03-05T06:00:25.091Z,1.85
2023-03-05T06:03:11.886Z,2.05
2023-03-05T06:05:58.854Z,1.70
2023-03-05T06:08:45.574Z,1.70
2023-03-05T06:11:32.254Z,1.48
2023-03-05T06:14:19.025Z,1.67
2023-03-05T06:17:07.031Z,10.93
2023-03-05T06:19:55.590Z,3.72
2023-03-05T06:22:42.055Z,1.60
2023-03-05T06:25:28.335Z,2.10
2023-03-05T06:28:14.775Z,5.72
2023-03-05T06:31:02.562Z,2.42
2023-03-05T06:33:51.646Z,2.13
2023-03-05T06:36:40.377Z,2.47
2023-03-05T06:39:26.554Z,2.30
2023-03-05T06:42:12.981Z,3.00
2023-03-05T06:44:59.169Z,2.90
2023-03-05T06:47:45.549Z,3.50
2023-03-05T06:50:36.046Z,8.73
2023-03-05T06:53:22.358Z,6.18
2023-03-05T06:56:08.933Z,3.50
2023-03-05T06:58:55.258Z,3.50
2023-03-05T07:01:41.784Z,6.60
2023-03-05T07:04:28.174Z,5.93
2023-03-05T07:07:15.955Z,3.95
2023-03-05T07:10:02.344Z,3.50
2023-03-05T07:12:49.029Z,3.08
2023-03-05T07:15:38.475Z,3.70
2023-03-05T07:18:24.660Z,3.30
2023-03-05T07:21:16.184Z,3.72
2023-03-05T07:24:05.136Z,3.30
2023-03-05T07:26:51.516Z,3.00
2023-03-05T07:29:37.963Z,2.80
2023-03-05T07:32:24.355Z,3.42
2023-03-05T07:35:11.420Z,3.58
2023-03-05T07:37:57.993Z,9.10
2023-03-05T07:40:45.930Z,4.72
2023-03-05T07:43:32.735Z,2.92
2023-03-05T07:46:20.632Z,3.05
2023-03-05T07:49:06.995Z,3.05
2023-03-05T07:51:53.622Z,5.65
2023-03-05T07:54:40.502Z,2.97
2023-03-05T07:57:28.762Z,2.70
2023-03-05T08:00:16.169Z,2.42
2023-03-05T08:03:03.044Z,2.92
2023-03-05T08:05:49.568Z,2.05
2023-03-05T08:08:36.182Z,2.53
2023-03-05T08:11:22.858Z,2.47
2023-03-05T08:14:11.348Z,1.92
2023-03-05T08:16:57.792Z,2.33
2023-03-05T08:19:44.217Z,1.95
2023-03-05T08:22:30.667Z,1.90
2023-03-05T08:25:20.138Z,1.40
2023-03-05T08:28:06.397Z,1.70
2023-03-05T08:30:54.123Z,4.22
2023-03-05T08:33:41.118Z,3.08
2023-03-05T08:36:27.735Z,2.10
2023-03-05T08:39:14.583Z,2.13
2023-03-05T08:42:01.121Z,2.33
2023-03-05T08:44:47.611Z,1.85
2023-03-05T08:47:35.527Z,1.60
2023-03-05T08:50:23.583Z,2.00
2023-03-05T08:53:10.168Z,1.52
2023-03-05T08:55:57.459Z,2.42
2023-03-05T08:58:44.315Z,1.80
2023-03-05T09:01:31.837Z,1.63
2023-03-05T09:04:19.858Z,1.48
2023-03-05T09:07:06.721Z,1.30
2023-03-05T09:09:53.227Z,0.90
2023-03-05T09:12:42.405Z,1.45
2023-03-05T09:15:28.827Z,1.40
2023-03-05T09:18:15.587Z,1.25
2023-03-05T09:21:07.067Z,1.35
2023-03-05T09:23:53.349Z,1.08
2023-03-05T09:26:40.994Z,0.95
2023-03-05T09:29:27.997Z,1.50
2023-03-05T09:32:14.534Z,1.20
2023-03-05T09:35:01.106Z,1.00
2023-03-05T09:37:48.711Z,1.33
2023-03-05T09:40:46.130Z,1.33
2023-03-05T09:43:45.071Z,1.10
2023-03-05T09:46:44.856Z,0.90
2023-03-05T09:49:44.571Z,1.15
2023-03-05T09:52:41.561Z,1.40
2023-03-05T09:55:35.543Z,1.05
2023-03-05T09:58:30.303Z,1.13
2023-03-05T10:01:21.369Z,1.77
2023-03-05T10:04:14.653Z,1.35
2023-03-05T10:07:08.895Z,1.15
2023-03-05T10:10:00.248Z,1.00
2023-03-05T10:15:50.258Z,0.90
2023-03-05T10:18:42.945Z,0.93
2023-03-05T10:21:32.643Z,2.70
2023-03-05T10:24:27.039Z,1.20
2023-03-05T10:27:20.296Z,0.47
2023-03-05T10:30:20.142Z,0.95
2023-03-05T10:33:16.466Z,0.80
2023-03-05T10:36:24.196Z,0.70
2023-03-05T10:39:44.757Z,0.90
2023-03-05T10:42:38.533Z,0.88
2023-03-05T10:45:33.286Z,0.70
2023-03-05T10:48:34.859Z,1.13
2023-03-05T10:51:29.025Z,0.70
2023-03-05T10:54:25.292Z,0.80
2023-03-05T10:57:18.403Z,0.95
2023-03-05T11:00:19.365Z,1.08
2023-03-05T11:03:09.095Z,1.38
2023-03-05T11:06:01.975Z,1.30
2023-03-05T11:08:48.327Z,0.98
2023-03-05T11:11:34.716Z,0.98
2023-03-05T11:14:30.938Z,0.70
2023-03-05T11:17:32.729Z,1.00
2023-03-05T11:20:33.360Z,1.58
2023-03-05T11:23:23.468Z,1.05
2023-03-05T11:26:22.356Z,1.33
2023-03-05T11:29:18.590Z,1.20
2023-03-05T11:32:18.564Z,1.15
2023-03-05T11:35:30.507Z,0.90
2023-03-05T11:38:19.847Z,0.77
2023-03-05T11:41:06.366Z,0.85
2023-03-05T11:43:55.331Z,0.75
2023-03-05T11:46:47.069Z,0.80
2023-03-05T11:49:40.181Z,0.98
2023-03-05T11:52:32.179Z,1.10
2023-03-05T11:55:20.856Z,1.20
2023-03-05T11:58:24.959Z,1.05
2023-03-05T12:01:16.938Z,1.60
2023-03-05T12:04:08.437Z,1.45
2023-03-05T12:06:58.796Z,2.33
2023-03-05T12:09:49.842Z,1.40
2023-03-05T12:12:44.971Z,1.70
2023-03-05T12:15:48.150Z,1.55
2023-03-05T12:18:45.537Z,1.63
2023-03-05T12:21:36.797Z,1.63
2023-03-05T12:24:38.537Z,1.38
2023-03-05T12:27:39.966Z,1.30
2023-03-05T12:31:00.735Z,1.27
2023-03-05T12:33:47.126Z,3.17
2023-03-05T12:36:39.846Z,1.10
2023-03-05T12:39:52.585Z,1.13
2023-03-05T12:42:54.068Z,0.77
2023-03-05T12:45:42.193Z,1.00
2023-03-05T12:48:46.883Z,1.00
2023-03-05T12:51:36.449Z,1.20
2023-03-05T12:54:28.486Z,1.15
2023-03-05T12:57:19.755Z,0.90
2023-03-05T13:00:15.916Z,0.95
2023-03-05T13:03:09.559Z,1.13
2023-03-05T13:05:58.520Z,1.40
2023-03-05T13:08:45.198Z,1.20
2023-03-05T13:11:34.407Z,1.30
2023-03-05T13:14:31.245Z,1.98
2023-03-05T13:17:44.258Z,1.90
2023-03-05T13:20:37.544Z,1.63
2023-03-05T13:23:25.411Z,8.82
2023-03-05T13:26:15.356Z,1.95
2023-03-05T13:29:12.781Z,1.83
2023-03-05T13:32:01.953Z,1.60
2023-03-05T13:34:51.067Z,1.50
2023-03-05T13:37:39.071Z,1.40
2023-03-05T13:40:27.222Z,1.52
2023-03-05T13:43:20.566Z,1.65
2023-03-05T13:46:06.765Z,1.75
2023-03-05T13:48:53.224Z,2.13
2023-03-05T13:51:45.995Z,1.63
2023-03-05T13:54:32.717Z,1.92
2023-03-05T13:57:35.887Z,1.85
2023-03-05T14:00:33.283Z,2.08
2023-03-05T14:03:24.899Z,2.20
2023-03-05T14:06:12.823Z,1.92
2023-03-05T14:09:07.633Z,1.60
2023-03-05T14:11:56.587Z,1.80
2023-03-05T14:14:45.322Z,1.70
2023-03-05T14:17:39.284Z,1.40
2023-03-05T14:20:28.376Z,1.50
2023-03-05T14:23:34.256Z,1.80
2023-03-05T14:26:29.222Z,1.40
2023-03-05T14:29:18.644Z,2.15
2023-03-05T14:32:07.899Z,1.58
2023-03-05T14:34:58.362Z,1.45
2023-03-05T14:40:37.840Z,1.65
2023-03-05T14:43:25.909Z,1.60
2023-03-05T14:46:13.731Z,2.00
2023-03-05T14:49:00.053Z,1.80
2023-03-05T14:51:47.964Z,1.30
2023-03-05T14:54:38.218Z,1.80
2023-03-05T14:57:28.305Z,1.58
2023-03-05T15:00:19.489Z,1.80
2023-03-05T15:03:05.884Z,2.00
2023-03-05T15:05:55.310Z,1.40
2023-03-05T15:08:41.463Z,1.83
2023-03-05T15:11:27.945Z,1.10
2023-03-05T15:14:14.624Z,1.00
2023-03-05T15:17:02.469Z,1.38
2023-03-05T15:19:49.300Z,1.02
2023-03-05T15:22:36.079Z,0.90
2023-03-05T15:25:26.569Z,1.45
2023-03-05T15:28:13.076Z,1.23
2023-03-05T15:31:00.414Z,1.38
2023-03-05T15:33:48.502Z,1.00
2023-03-05T15:36:34.830Z,2.17
2023-03-05T15:39:21.528Z,1.13
2023-03-05T15:42:08.185Z,0.70
2023-03-05T15:44:54.692Z,0.80
2023-03-05T15:47:41.052Z,0.82
2023-03-05T15:50:29.081Z,1.00
2023-03-05T15:53:17.946Z,0.90
2023-03-05T15:56:04.616Z,1.00
2023-03-05T15:58:51.628Z,0.75
2023-03-05T16:01:38.600Z,0.88
2023-03-05T16:04:25.178Z,0.80
2023-03-05T16:07:15.865Z,0.95
2023-03-05T16:10:02.307Z,0.80
2023-03-05T16:12:51.470Z,1.10
2023-03-05T16:15:40.629Z,1.35
2023-03-05T16:18:27.640Z,0.95
2023-03-05T16:21:14.870Z,1.10
2023-03-05T16:24:03.066Z,1.15
2023-03-05T16:26:49.354Z,0.90
2023-03-05T16:29:35.754Z,1.00
2023-03-05T16:32:22.652Z,1.17
2023-03-05T16:35:11.797Z,1.08
2023-03-05T16:37:58.120Z,1.00
2023-03-05T16:41:06.929Z,1.48
2023-03-05T16:43:56.193Z,1.00
2023-03-05T16:46:47.105Z,1.75
2023-03-05T16:49:35.296Z,0.93
2023-03-05T16:52:22.415Z,0.90
2023-03-05T16:55:09.576Z,1.23
2023-03-05T16:57:57.545Z,1.00
2023-03-05T17:00:44.124Z,1.33
2023-03-05T17:03:31.060Z,0.90
2023-03-05T17:06:24.727Z,1.42
2023-03-05T17:09:11.531Z,1.15
2023-03-05T17:11:58.332Z,2.65
2023-03-05T17:14:46.221Z,2.47
2023-03-05T17:17:32.861Z,2.15
2023-03-05T17:20:20.689Z,0.90
2023-03-05T17:23:07.280Z,1.02
2023-03-05T17:25:54.339Z,1.10
2023-03-05T17:28:42.499Z,1.00
2023-03-05T17:31:30.820Z,2.70
2023-03-05T17:34:18.436Z,1.30
2023-03-05T17:37:07.104Z,1.10
2023-03-05T17:39:54.232Z,0.85
2023-03-05T17:42:53.548Z,1.90
2023-03-05T17:45:54.229Z,4.15
2023-03-05T17:48:50.278Z,4.07
2023-03-05T17:51:42.347Z,0.80
2023-03-05T17:54:37.757Z,0.88
2023-03-05T17:57:34.616Z,0.90
2023-03-05T18:00:43.000Z,1.05
2023-03-05T18:03:42.342Z,1.30
2023-03-05T18:06:38.227Z,1.43
2023-03-05T18:09:48.680Z,0.90
2023-03-05T18:12:38.936Z,0.90
2023-03-05T18:15:41.976Z,1.17
2023-03-05T18:18:41.639Z,1.20
2023-03-05T18:21:31.446Z,1.25
2023-03-05T18:24:31.425Z,1.50
2023-03-05T18:27:45.993Z,2.72
2023-03-05T18:31:01.292Z,4.63
2023-03-05T18:34:00.446Z,1.13
2023-03-05T18:37:11.304Z,1.55
2023-03-05T18:40:12.894Z,1.45
2023-03-05T18:43:10.502Z,1.42
2023-03-05T18:46:15.882Z,1.20
2023-03-05T18:49:09.452Z,1.20
2023-03-05T18:52:04.208Z,1.17
2023-03-05T18:55:25.358Z,1.10
2023-03-05T18:58:21.234Z,1.30
2023-03-05T19:01:32.257Z,1.77
2023-03-05T19:04:37.569Z,1.40
2023-03-05T19:08:03.500Z,1.27
2023-03-05T19:11:03.374Z,1.08
2023-03-05T19:14:01.229Z,1.35
2023-03-05T19:17:11.106Z,1.25
2023-03-05T19:20:08.247Z,1.20
2023-03-05T19:26:26.729Z,1.20
2023-03-05T19:29:25.360Z,1.65
2023-03-05T19:32:25.477Z,2.40
2023-03-05T19:35:27.742Z,1.63
2023-03-05T19:38:33.055Z,1.20
2023-03-05T19:41:30.685Z,1.45
2023-03-05T19:44:29.780Z,1.50
2023-03-05T19:47:27.342Z,1.63
2023-03-05T19:50:28.569Z,2.22
2023-03-05T19:53:24.359Z,5.32
2023-03-05T19:56:18.365Z,5.60
2023-03-05T19:59:07.221Z,1.80
2023-03-05T20:01:54.345Z,1.88
2023-03-05T20:04:43.434Z,2.38
2023-03-05T20:07:34.136Z,1.95
2023-03-05T20:10:22.477Z,2.38
2023-03-05T20:13:12.406Z,2.42
2023-03-05T20:16:00.361Z,2.75
2023-03-05T20:18:52.467Z,1.95
2023-03-05T20:21:41.122Z,2.10
2023-03-05T20:24:27.730Z,1.80
2023-03-05T20:27:14.343Z,2.03
2023-03-05T20:30:00.954Z,2.05
2023-03-05T20:32:48.707Z,1.95
2023-03-05T20:35:35.230Z,3.30
2023-03-05T20:38:22.713Z,2.40
2023-03-05T20:41:11.762Z,1.80
2023-03-05T20:43:58.466Z,2.15
2023-03-05T20:46:51.908Z,2.13
2023-03-05T20:49:39.868Z,2.90
2023-03-05T20:52:26.491Z,2.08
2023-03-05T20:55:13.639Z,2.05
2023-03-05T20:58:00.506Z,1.90
2023-03-05T21:00:47.234Z,2.40
2023-03-05T21:03:33.520Z,3.13
2023-03-05T21:06:21.323Z,2.88
2023-03-05T21:09:07.978Z,3.20
2023-03-05T21:11:54.757Z,2.47
2023-03-05T21:14:40.989Z,2.63
2023-03-05T21:17:27.487Z,2.67
2023-03-05T21:20:16.190Z,2.60
2023-03-05T21:23:04.157Z,2.72
2023-03-05T21:25:50.769Z,2.80
2023-03-05T21:28:37.381Z,2.88
2023-03-05T21:31:23.957Z,2.80
2023-03-05T21:34:10.417Z,2.42
2023-03-05T21:36:56.752Z,2.70
2023-03-05T21:39:44.399Z,2.70
2023-03-05T21:42:32.285Z,2.90
2023-03-05T21:45:21.840Z,3.10
2023-03-05T21:48:08.942Z,2.60
2023-03-05T21:50:55.926Z,3.17
2023-03-05T21:53:42.221Z,2.78
2023-03-05T21:56:30.968Z,3.08
2023-03-05T21:59:17.223Z,2.95
2023-03-05T22:02:03.900Z,3.13
2023-03-05T22:04:50.922Z,3.65
2023-03-05T22:07:37.361Z,3.20
2023-03-05T22:10:24.228Z,3.20
2023-03-05T22:13:13.309Z,3.20
2023-03-05T22:16:00.598Z,3.10
2023-03-05T22:18:46.801Z,2.90
2023-03-05T22:21:33.558Z,3.35
2023-03-05T22:24:21.752Z,3.08
2023-03-05T22:27:09.195Z,4.53
2023-03-05T22:29:56.778Z,3.65
2023-03-05T22:32:42.955Z,3.50
2023-03-05T22:35:29.855Z,3.50
2023-03-05T22:38:16.340Z,3.97
2023-03-05T22:41:02.775Z,4.47
2023-03-05T22:43:50.567Z,3.92
2023-03-05T22:46:38.489Z,4.20
2023-03-05T22:49:24.893Z,4.78
2023-03-05T22:52:11.318Z,4.30
2023-03-05T22:54:57.856Z,5.10
2023-03-05T22:57:44.906Z,4.85
2023-03-05T23:00:31.067Z,5.82
2023-03-05T23:03:18.534Z,6.47
2023-03-05T23:06:05.785Z,6.82
2023-03-05T23:08:51.854Z,7.25
2023-03-05T23:11:38.501Z,7.47
2023-03-05T23:14:24.922Z,8.00
2023-03-05T23:17:11.310Z,7.25
2023-03-05T23:19:59.001Z,7.50
2023-03-05T23:22:46.267Z,7.72
2023-03-05T23:25:35.257Z,7.25
2023-03-05T23:28:21.964Z,7.53
2023-03-05T23:31:08.487Z,6.93
2023-03-05T23:33:55.071Z,6.43
2023-03-05T23:36:43.150Z,5.97
2023-03-05T23:39:29.525Z,5.43
2023-03-05T23:42:15.962Z,5.80
2023-03-05T23:45:02.292Z,5.45
2023-03-05T23:47:49.391Z,6.97
2023-03-05T23:50:37.575Z,6.57
2023-03-05T23:53:27.222Z,6.38
2023-03-05T23:56:13.592Z,5.70
2023-03-05T23:59:01.510Z,6.13
